This is the latest recevied weather packets stored in our database for station/object LEMD. If no packets are shown the sender has not sent any weather packets the latest 1 day(s).
| Time | Temp. | Humidity | Pressure | Rain* | Wind** | Luminosity | Snow |
|---|---|---|---|---|---|---|---|
| 1836274676 | 20° C | 72% | 1022 hPa | - | 2.24 m/s, 340° | - | - |
| 1778031903 | 7.78° C | 70% | 1013 hPa | - | 0.45 m/s, 0° | - | - |
| 1778031005 | 8.89° C | 66% | 1013 hPa | - | 0.45 m/s, 0° | - | - |
| 1778029204 | 8.89° C | 66% | 1014 hPa | - | 0.45 m/s, 120° | - | - |
| 1778028304 | 8.89° C | 66% | 1014 hPa | - | 0.45 m/s, 120° | - | - |
| 1778026503 | 8.89° C | 66% | 1013 hPa | - | 0.89 m/s, 0° | - | - |
| 1778022003 | 12.22° C | 46% | 1013 hPa | - | 0.89 m/s, 0° | - | - |
| 1778021104 | 12.22° C | 46% | 1013 hPa | - | 0.89 m/s, 0° | - | - |
| 1778019305 | 12.22° C | 46% | 1013 hPa | - | 1.34 m/s, 350° | - | - |
| 1778018406 | 13.89° C | 41% | 1013 hPa | - | 3.13 m/s, 290° | - | - |
| 1778017504 | 13.89° C | 41% | 1013 hPa | - | 3.13 m/s, 290° | - | - |
| 1778016605 | 15° C | 35% | 1013 hPa | - | 3.13 m/s, 290° | - | - |
| 1778014805 | 15° C | 35% | 1013 hPa | - | 4.02 m/s, 300° | - | - |
| 1778013903 | 15° C | 35% | 1013 hPa | - | 4.02 m/s, 300° | - | - |
| 1778012104 | 15° C | 35% | 1012 hPa | - | 5.81 m/s, 310° | - | - |
| 1778010303 | 16.11° C | 31% | 1012 hPa | - | 5.36 m/s, 300° | - | - |
| 1778008504 | 17.22° C | 31% | 1012 hPa | - | 6.26 m/s, 300° | - | - |
| 1778007605 | 17.78° C | 29% | 1011 hPa | - | 5.36 m/s, 300° | - | - |
| 1778006703 | 17.78° C | 29% | 1011 hPa | - | 5.36 m/s, 300° | - | - |
| 1778004905 | 17.78° C | 29% | 1011 hPa | - | 6.26 m/s, 270° | - | - |
| 1778004005 | 17.78° C | 27% | 1011 hPa | - | 5.81 m/s, 270° | - | - |
| 1778002204 | 18.89° C | 27% | 1011 hPa | - | 6.71 m/s, 290° | - | - |
| 1778001303 | 18.89° C | 27% | 1011 hPa | - | 6.71 m/s, 290° | - | - |
| 1778000405 | 18.89° C | 27% | 1011 hPa | - | 6.71 m/s, 300° | - | - |
| 1777999504 | 18.89° C | 27% | 1011 hPa | - | 6.71 m/s, 300° | - | - |
* Rain since midnight (hover to see other rain measurements)
** Current wind speed in m/s (hover to see current wind gust speed)